Linwood, Maryland
Current Conditions -  °F | °C
As of 12:15 AM on Saturday 29 Nov 2014 (Local Time) from KDMW Reporting Station
Broken Clouds Broken Clouds  
Wind Chill: 27°   Ceiling: 7000
Heat Index: 27°   Visibility: 10mi
Dew Point: 19°   Wind: 0mph
Humidity: 74%   Direction: NA
Pressure: 30.26"   Gusts: NA
Location:  39.56°N, 77.14°W
Report Text: KDMW 290515Z AUTO 00000KT 10SM BKN070 BKN090 M03/M07 A3026 RMK AO2
Loading
Personal Weather Stations






























Interactive Weather Map New forecast layout! Learn more

10-Day Weather Forecast

Advertisements
Track Severe Weather on mobile